Polar Express — WDF4346 — position and weather

sailwx.info

Track history (hours):
 
Tides and Currents Weather Stations Pressure Air Temp Water Temp Dewpoint Dewpoint Depression Visibility Wind Speed Wind Dir Waves Ship Positions

Polar Express

Owner: Bennett, Richard G, Hayden Lake, ID. More information available from US FCC via Universal Licensing System and Coast Guard Vessel Documentation Center.

Last reported at 2016-Aug-27 18:33 UTC. Time now 2016-Aug-27 18:48 UTC.
Position N 47°40' W 122°27'.

Length 30 m.

Type: Pleasure craft. MMSI: 367450780.

Date/timePositionNaut miles runAvg speedWind from/ knotsBaromVisibWave heightAir tempDewpointWater temp
2016-Aug-27 18:33N 47°40' W 122°27'5 0.3
2016-Aug-27 02:31N 47°36' W 122°21'6 6.7
2016-Aug-27 01:33N 47°32' W 122°28'2 0.1
2016-Aug-25 23:26N 47°30' W 122°30'6 6.6
2016-Aug-25 22:33N 47°35' W 122°35'2 2.0
2016-Aug-25 21:31N 47°34' W 122°37'0 0.0
2016-Aug-25 20:31N 47°34' W 122°37'0 0.0
2016-Aug-25 19:31N 47°34' W 122°37'0 0.0
2016-Aug-25 18:31N 47°34' W 122°37'0 0.0
2016-Aug-25 17:31N 47°34' W 122°37'0 0.0
2016-Aug-25 16:31N 47°34' W 122°37'0 0.0
2016-Aug-25 15:31N 47°34' W 122°37'0 0.0
2016-Aug-25 14:32N 47°34' W 122°37'0 0.0
2016-Aug-25 13:32N 47°34' W 122°37'0 0.0
2016-Aug-25 12:32N 47°34' W 122°37'0 0.0
2016-Aug-25 11:32N 47°34' W 122°37'0 0.0
2016-Aug-25 10:32N 47°34' W 122°37'0 0.0
2016-Aug-25 09:32N 47°34' W 122°37'0 0.0
2016-Aug-25 08:32N 47°34' W 122°37'0 0.0
2016-Aug-25 07:32N 47°34' W 122°37'0 0.0
2016-Aug-25 06:32N 47°34' W 122°37'0 0.0
2016-Aug-25 04:32N 47°34' W 122°37'0 0.0
2016-Aug-25 03:32N 47°34' W 122°37'0 0.0
2016-Aug-25 02:32N 47°34' W 122°37'0 0.4
2016-Aug-25 01:33N 47°34' W 122°37'10 9.7
2016-Aug-25 00:32N 47°43' W 122°33'7 6.9
2016-Aug-24 23:33N 47°40' W 122°24'2 2.0
2016-Aug-24 22:32N 47°39' W 122°21'1 0.4
2016-Aug-24 18:28N 47°38' W 122°20'0 0.0
2016-Aug-24 17:28N 47°38' W 122°20'0 0.0
2016-Aug-24 16:28N 47°38' W 122°20'0 0.0
2016-Aug-24 15:16N 47°38' W 122°20'0 0.0
2016-Aug-24 14:30N 47°38' W 122°20'0 0.0
2016-Aug-24 13:27N 47°38' W 122°20'0 0.0
2016-Aug-24 12:33N 47°38' W 122°20'0 0.0
2016-Aug-24 11:33N 47°38' W 122°20'0 0.0
2016-Aug-24 10:33N 47°38' W 122°20'0 0.0
2016-Aug-24 09:33N 47°38' W 122°20'0 0.0
2016-Aug-24 08:33N 47°38' W 122°20'0 0.0
2016-Aug-24 07:33N 47°38' W 122°20'0 0.0
2016-Aug-24 06:33N 47°38' W 122°20'0 0.0
2016-Aug-24 04:33N 47°38' W 122°20'0 0.0
2016-Aug-24 03:33N 47°38' W 122°20'0 0.0
2016-Aug-24 02:33N 47°38' W 122°20'0 0.0
2016-Aug-24 00:03N 47°38' W 122°20'0 0.0
2016-Aug-23 23:33N 47°38' W 122°20'0 0.0
2016-Aug-23 22:34N 47°38' W 122°20'0 0.0
2016-Aug-23 21:28N 47°38' W 122°20'0 0.0
2016-Aug-23 20:34N 47°38' W 122°20'0 0.0
2016-Aug-23 19:31N 47°38' W 122°20'0 0.0
2016-Aug-23 18:31N 47°38' W 122°20'0 0.0
2016-Aug-23 17:31N 47°38' W 122°20'0 0.0
2016-Aug-23 16:31N 47°38' W 122°20'0 0.0
2016-Aug-23 15:31N 47°38' W 122°20'0 0.0
2016-Aug-23 14:25N 47°38' W 122°20'0 0.0
2016-Aug-23 13:31N 47°38' W 122°20'0 0.0
2016-Aug-23 12:31N 47°38' W 122°20'0 0.0
2016-Aug-23 11:28N 47°38' W 122°20'0 0.0
2016-Aug-23 10:31N 47°38' W 122°20'0 0.0
2016-Aug-23 09:31N 47°38' W 122°20'0 0.0
2016-Aug-23 08:31N 47°38' W 122°20'0 0.0
2016-Aug-23 07:25N 47°38' W 122°20'0 0.0
2016-Aug-23 06:31N 47°38' W 122°20'0 0.0
2016-Aug-23 05:31N 47°38' W 122°20'0 0.0
2016-Aug-23 04:29N 47°38' W 122°20'0 0.0
2016-Aug-23 03:25N 47°38' W 122°20'0 0.0
2016-Aug-23 00:31N 47°38' W 122°20'0 0.0
2016-Aug-22 23:28N 47°38' W 122°20'0 0.0
2016-Aug-22 22:28N 47°38' W 122°20'0 0.0
2016-Aug-22 21:31N 47°38' W 122°20'0 0.0
2016-Aug-22 20:33N 47°38' W 122°20'0 0.0
2016-Aug-22 19:28N 47°38' W 122°20'0 0.0
2016-Aug-22 18:31N 47°38' W 122°20'0 0.0
2016-Aug-22 17:31N 47°38' W 122°20'0 0.0
2016-Aug-22 16:31N 47°38' W 122°20'0 0.0
2016-Aug-22 15:29N 47°38' W 122°20'0 0.0
2016-Aug-22 14:22N 47°38' W 122°20'0 0.0
2016-Aug-22 13:25N 47°38' W 122°20'0 0.0
2016-Aug-22 12:31N 47°38' W 122°20'0 0.0
2016-Aug-22 11:31N 47°38' W 122°20'0 0.0
2016-Aug-22 10:31N 47°38' W 122°20'0 0.0
2016-Aug-22 09:31N 47°38' W 122°20'0 0.0
2016-Aug-22 08:31N 47°38' W 122°20'0 0.0
2016-Aug-22 07:31N 47°38' W 122°20'0 0.0
2016-Aug-22 06:10N 47°38' W 122°20'0 0.0
2016-Aug-22 05:31N 47°38' W 122°20'0 0.0
2016-Aug-22 04:31N 47°38' W 122°20'0 0.0
2016-Aug-22 03:28N 47°38' W 122°20'0 0.0
2016-Aug-22 02:31N 47°38' W 122°20'0 0.0
2016-Aug-22 01:31N 47°38' W 122°20'0 0.0
2016-Aug-22 00:31N 47°38' W 122°20'0 0.0
2016-Aug-21 23:31N 47°38' W 122°20'0 0.0
2016-Aug-21 22:31N 47°38' W 122°20'0 0.0
2016-Aug-21 21:31N 47°38' W 122°20'0 0.0
2016-Aug-21 20:31N 47°38' W 122°20'0 0.0
2016-Aug-21 19:31N 47°38' W 122°20'0 0.0
2016-Aug-21 17:31N 47°38' W 122°20'0 0.0
2016-Aug-21 16:31N 47°38' W 122°20'0 0.0
2016-Aug-21 15:31N 47°38' W 122°20'0 0.0
2016-Aug-21 14:25N 47°38' W 122°20'0 0.0
2016-Aug-21 13:31N 47°38' W 122°20'0 0.0
2016-Aug-21 12:31N 47°38' W 122°20'0 0.0
2016-Aug-21 11:31N 47°38' W 122°20'0 0.0
2016-Aug-21 10:31N 47°38' W 122°20'0 0.0
2016-Aug-21 09:31N 47°38' W 122°20'0 0.0
2016-Aug-21 08:29N 47°38' W 122°20'0 0.0
2016-Aug-21 07:29N 47°38' W 122°20'0 0.0
2016-Aug-21 06:31N 47°38' W 122°20'0 0.0
2016-Aug-21 05:31N 47°38' W 122°20'0 0.0
2016-Aug-21 04:31N 47°38' W 122°20'0 0.0
2016-Aug-21 03:31N 47°38' W 122°20'0 0.2
2016-Aug-21 02:33N 47°38' W 122°20'0 0.1
2016-Aug-20 23:33N 47°38' W 122°20'0 0.4
2016-Aug-20 22:32N 47°38' W 122°20'0 0.0
2016-Aug-20 21:32N 47°38' W 122°20'0 0.0
2016-Aug-20 20:32N 47°38' W 122°20'0 0.0
2016-Aug-20 19:32N 47°38' W 122°20'0 0.0
2016-Aug-20 18:29N 47°38' W 122°20'0 0.0
2016-Aug-20 17:32N 47°38' W 122°20'0 0.0
2016-Aug-20 16:32N 47°38' W 122°20'0 0.0
2016-Aug-20 15:32N 47°38' W 122°20'0 0.0
2016-Aug-20 14:32N 47°38' W 122°20'0 0.0
2016-Aug-20 13:32N 47°38' W 122°20'0 0.0
2016-Aug-20 12:26N 47°38' W 122°20'0 0.0
2016-Aug-20 11:32N 47°38' W 122°20'0 0.0
2016-Aug-20 10:32N 47°38' W 122°20'0 0.0
2016-Aug-20 09:32N 47°38' W 122°20'0 0.0
2016-Aug-20 08:32N 47°38' W 122°20'0 0.0
2016-Aug-20 07:32N 47°38' W 122°20'0 0.0
2016-Aug-20 06:32N 47°38' W 122°20'0 0.0
2016-Aug-20 05:32N 47°38' W 122°20'0 0.0
2016-Aug-20 04:29N 47°38' W 122°20'0 0.0
2016-Aug-20 03:32N 47°38' W 122°20'0 0.0
2016-Aug-19 05:33N 47°38' W 122°20'0 0.0
2016-Aug-19 04:32N 47°38' W 122°20'0 0.0
2016-Aug-19 03:33N 47°38' W 122°20'0 0.0
2016-Aug-19 02:27N 47°38' W 122°20'0 0.0
2016-Aug-19 01:33N 47°38' W 122°20'0 0.0
2016-Aug-19 00:32N 47°38' W 122°20'0 0.0
2016-Aug-18 23:30N 47°38' W 122°20'0 0.0
2016-Aug-18 22:29N 47°38' W 122°20'0 0.0
2016-Aug-18 21:23N 47°38' W 122°20'0 0.0
2016-Aug-18 20:32N 47°38' W 122°20'0 0.0
2016-Aug-18 19:30N 47°38' W 122°20'0 0.0
2016-Aug-18 18:29N 47°38' W 122°20'0 0.0
2016-Aug-18 16:30N 47°38' W 122°20'0 0.0
2016-Aug-18 15:23N 47°38' W 122°20'0 0.0
2016-Aug-18 14:33N 47°38' W 122°20'0 0.0
2016-Aug-18 13:30N 47°38' W 122°20'0 0.0
2016-Aug-18 12:30N 47°38' W 122°20'0 0.0
2016-Aug-18 11:31N 47°38' W 122°20'0 0.0
2016-Aug-18 10:29N 47°38' W 122°20'0 0.0
2016-Aug-18 09:30N 47°38' W 122°20'0 0.0
2016-Aug-18 08:30N 47°38' W 122°20'0 0.0
2016-Aug-18 07:27N 47°38' W 122°20'0 0.0
2016-Aug-18 06:33N 47°38' W 122°20'0 0.0
2016-Aug-18 05:30N 47°38' W 122°20'0 0.0
2016-Aug-18 04:27N 47°38' W 122°20'0 0.0
2016-Aug-17 23:05N 47°38' W 122°20'0 0.0
2016-Aug-17 22:33N 47°38' W 122°20'0 0.0
2016-Aug-17 21:08N 47°38' W 122°20'0 0.0
2016-Aug-17 20:32N 47°38' W 122°20'0 0.0
2016-Aug-17 19:10N 47°38' W 122°20'  
Track history (hours):
 
Tides and Currents Weather Stations Pressure Air Temp Water Temp Dewpoint Dewpoint Depression Visibility Wind Speed Wind Dir Waves Ship Positions

Polar Express

Owner: Bennett, Richard G, Hayden Lake, ID. More information available from US FCC via Universal Licensing System and Coast Guard Vessel Documentation Center.

Last reported at 2016-Aug-27 18:33 UTC. Time now 2016-Aug-27 18:48 UTC.
Position N 47°40' W 122°27'.

Length 30 m.

Type: Pleasure craft. MMSI: 367450780.

Date/timePositionNaut miles runAvg speedWind from/ knotsBaromVisibWave heightAir tempDewpointWater temp
2016-Aug-27 18:33N 47°40' W 122°27'5 0.3
2016-Aug-27 02:31N 47°36' W 122°21'6 6.7
2016-Aug-27 01:33N 47°32' W 122°28'2 0.1
2016-Aug-25 23:26N 47°30' W 122°30'6 6.6
2016-Aug-25 22:33N 47°35' W 122°35'2 2.0
2016-Aug-25 21:31N 47°34' W 122°37'0 0.0
2016-Aug-25 20:31N 47°34' W 122°37'0 0.0
2016-Aug-25 19:31N 47°34' W 122°37'0 0.0
2016-Aug-25 18:31N 47°34' W 122°37'0 0.0
2016-Aug-25 17:31N 47°34' W 122°37'0 0.0
2016-Aug-25 16:31N 47°34' W 122°37'0 0.0
2016-Aug-25 15:31N 47°34' W 122°37'0 0.0
2016-Aug-25 14:32N 47°34' W 122°37'0 0.0
2016-Aug-25 13:32N 47°34' W 122°37'0 0.0
2016-Aug-25 12:32N 47°34' W 122°37'0 0.0
2016-Aug-25 11:32N 47°34' W 122°37'0 0.0
2016-Aug-25 10:32N 47°34' W 122°37'0 0.0
2016-Aug-25 09:32N 47°34' W 122°37'0 0.0
2016-Aug-25 08:32N 47°34' W 122°37'0 0.0
2016-Aug-25 07:32N 47°34' W 122°37'0 0.0
2016-Aug-25 06:32N 47°34' W 122°37'0 0.0
2016-Aug-25 04:32N 47°34' W 122°37'0 0.0
2016-Aug-25 03:32N 47°34' W 122°37'0 0.0
2016-Aug-25 02:32N 47°34' W 122°37'0 0.4
2016-Aug-25 01:33N 47°34' W 122°37'10 9.7
2016-Aug-25 00:32N 47°43' W 122°33'7 6.9
2016-Aug-24 23:33N 47°40' W 122°24'2 2.0
2016-Aug-24 22:32N 47°39' W 122°21'1 0.4
2016-Aug-24 18:28N 47°38' W 122°20'0 0.0
2016-Aug-24 17:28N 47°38' W 122°20'0 0.0
2016-Aug-24 16:28N 47°38' W 122°20'0 0.0
2016-Aug-24 15:16N 47°38' W 122°20'0 0.0
2016-Aug-24 14:30N 47°38' W 122°20'0 0.0
2016-Aug-24 13:27N 47°38' W 122°20'0 0.0
2016-Aug-24 12:33N 47°38' W 122°20'0 0.0
2016-Aug-24 11:33N 47°38' W 122°20'0 0.0
2016-Aug-24 10:33N 47°38' W 122°20'0 0.0
2016-Aug-24 09:33N 47°38' W 122°20'0 0.0
2016-Aug-24 08:33N 47°38' W 122°20'0 0.0
2016-Aug-24 07:33N 47°38' W 122°20'0 0.0
2016-Aug-24 06:33N 47°38' W 122°20'0 0.0
2016-Aug-24 04:33N 47°38' W 122°20'0 0.0
2016-Aug-24 03:33N 47°38' W 122°20'0 0.0
2016-Aug-24 02:33N 47°38' W 122°20'0 0.0
2016-Aug-24 00:03N 47°38' W 122°20'0 0.0
2016-Aug-23 23:33N 47°38' W 122°20'0 0.0
2016-Aug-23 22:34N 47°38' W 122°20'0 0.0
2016-Aug-23 21:28N 47°38' W 122°20'0 0.0
2016-Aug-23 20:34N 47°38' W 122°20'0 0.0
2016-Aug-23 19:31N 47°38' W 122°20'0 0.0
2016-Aug-23 18:31N 47°38' W 122°20'0 0.0
2016-Aug-23 17:31N 47°38' W 122°20'0 0.0
2016-Aug-23 16:31N 47°38' W 122°20'0 0.0
2016-Aug-23 15:31N 47°38' W 122°20'0 0.0
2016-Aug-23 14:25N 47°38' W 122°20'0 0.0
2016-Aug-23 13:31N 47°38' W 122°20'0 0.0
2016-Aug-23 12:31N 47°38' W 122°20'0 0.0
2016-Aug-23 11:28N 47°38' W 122°20'0 0.0
2016-Aug-23 10:31N 47°38' W 122°20'0 0.0
2016-Aug-23 09:31N 47°38' W 122°20'0 0.0
2016-Aug-23 08:31N 47°38' W 122°20'0 0.0
2016-Aug-23 07:25N 47°38' W 122°20'0 0.0
2016-Aug-23 06:31N 47°38' W 122°20'0 0.0
2016-Aug-23 05:31N 47°38' W 122°20'0 0.0
2016-Aug-23 04:29N 47°38' W 122°20'0 0.0
2016-Aug-23 03:25N 47°38' W 122°20'0 0.0
2016-Aug-23 00:31N 47°38' W 122°20'0 0.0
2016-Aug-22 23:28N 47°38' W 122°20'0 0.0
2016-Aug-22 22:28N 47°38' W 122°20'0 0.0
2016-Aug-22 21:31N 47°38' W 122°20'0 0.0
2016-Aug-22 20:33N 47°38' W 122°20'0 0.0
2016-Aug-22 19:28N 47°38' W 122°20'0 0.0
2016-Aug-22 18:31N 47°38' W 122°20'0 0.0
2016-Aug-22 17:31N 47°38' W 122°20'0 0.0
2016-Aug-22 16:31N 47°38' W 122°20'0 0.0
2016-Aug-22 15:29N 47°38' W 122°20'0 0.0
2016-Aug-22 14:22N 47°38' W 122°20'0 0.0
2016-Aug-22 13:25N 47°38' W 122°20'0 0.0
2016-Aug-22 12:31N 47°38' W 122°20'0 0.0
2016-Aug-22 11:31N 47°38' W 122°20'0 0.0
2016-Aug-22 10:31N 47°38' W 122°20'0 0.0
2016-Aug-22 09:31N 47°38' W 122°20'0 0.0
2016-Aug-22 08:31N 47°38' W 122°20'0 0.0
2016-Aug-22 07:31N 47°38' W 122°20'0 0.0
2016-Aug-22 06:10N 47°38' W 122°20'0 0.0
2016-Aug-22 05:31N 47°38' W 122°20'0 0.0
2016-Aug-22 04:31N 47°38' W 122°20'0 0.0
2016-Aug-22 03:28N 47°38' W 122°20'0 0.0
2016-Aug-22 02:31N 47°38' W 122°20'0 0.0
2016-Aug-22 01:31N 47°38' W 122°20'0 0.0
2016-Aug-22 00:31N 47°38' W 122°20'0 0.0
2016-Aug-21 23:31N 47°38' W 122°20'0 0.0
2016-Aug-21 22:31N 47°38' W 122°20'0 0.0
2016-Aug-21 21:31N 47°38' W 122°20'0 0.0
2016-Aug-21 20:31N 47°38' W 122°20'0 0.0
2016-Aug-21 19:31N 47°38' W 122°20'0 0.0
2016-Aug-21 17:31N 47°38' W 122°20'0 0.0
2016-Aug-21 16:31N 47°38' W 122°20'0 0.0
2016-Aug-21 15:31N 47°38' W 122°20'0 0.0
2016-Aug-21 14:25N 47°38' W 122°20'0 0.0
2016-Aug-21 13:31N 47°38' W 122°20'0 0.0
2016-Aug-21 12:31N 47°38' W 122°20'0 0.0
2016-Aug-21 11:31N 47°38' W 122°20'0 0.0
2016-Aug-21 10:31N 47°38' W 122°20'0 0.0
2016-Aug-21 09:31N 47°38' W 122°20'0 0.0
2016-Aug-21 08:29N 47°38' W 122°20'0 0.0
2016-Aug-21 07:29N 47°38' W 122°20'0 0.0
2016-Aug-21 06:31N 47°38' W 122°20'0 0.0
2016-Aug-21 05:31N 47°38' W 122°20'0 0.0
2016-Aug-21 04:31N 47°38' W 122°20'0 0.0
2016-Aug-21 03:31N 47°38' W 122°20'0 0.2
2016-Aug-21 02:33N 47°38' W 122°20'0 0.1
2016-Aug-20 23:33N 47°38' W 122°20'0 0.4
2016-Aug-20 22:32N 47°38' W 122°20'0 0.0
2016-Aug-20 21:32N 47°38' W 122°20'0 0.0
2016-Aug-20 20:32N 47°38' W 122°20'0 0.0
2016-Aug-20 19:32N 47°38' W 122°20'0 0.0
2016-Aug-20 18:29N 47°38' W 122°20'0 0.0
2016-Aug-20 17:32N 47°38' W 122°20'0 0.0
2016-Aug-20 16:32N 47°38' W 122°20'0 0.0
2016-Aug-20 15:32N 47°38' W 122°20'0 0.0
2016-Aug-20 14:32N 47°38' W 122°20'0 0.0
2016-Aug-20 13:32N 47°38' W 122°20'0 0.0
2016-Aug-20 12:26N 47°38' W 122°20'0 0.0
2016-Aug-20 11:32N 47°38' W 122°20'0 0.0
2016-Aug-20 10:32N 47°38' W 122°20'0 0.0
2016-Aug-20 09:32N 47°38' W 122°20'0 0.0
2016-Aug-20 08:32N 47°38' W 122°20'0 0.0
2016-Aug-20 07:32N 47°38' W 122°20'0 0.0
2016-Aug-20 06:32N 47°38' W 122°20'0 0.0
2016-Aug-20 05:32N 47°38' W 122°20'0 0.0
2016-Aug-20 04:29N 47°38' W 122°20'0 0.0
2016-Aug-20 03:32N 47°38' W 122°20'0 0.0
2016-Aug-19 05:33N 47°38' W 122°20'0 0.0
2016-Aug-19 04:32N 47°38' W 122°20'0 0.0
2016-Aug-19 03:33N 47°38' W 122°20'0 0.0
2016-Aug-19 02:27N 47°38' W 122°20'0 0.0
2016-Aug-19 01:33N 47°38' W 122°20'0 0.0
2016-Aug-19 00:32N 47°38' W 122°20'0 0.0
2016-Aug-18 23:30N 47°38' W 122°20'0 0.0
2016-Aug-18 22:29N 47°38' W 122°20'0 0.0
2016-Aug-18 21:23N 47°38' W 122°20'0 0.0
2016-Aug-18 20:32N 47°38' W 122°20'0 0.0
2016-Aug-18 19:30N 47°38' W 122°20'0 0.0
2016-Aug-18 18:29N 47°38' W 122°20'0 0.0
2016-Aug-18 16:30N 47°38' W 122°20'0 0.0
2016-Aug-18 15:23N 47°38' W 122°20'0 0.0
2016-Aug-18 14:33N 47°38' W 122°20'0 0.0
2016-Aug-18 13:30N 47°38' W 122°20'0 0.0
2016-Aug-18 12:30N 47°38' W 122°20'0 0.0
2016-Aug-18 11:31N 47°38' W 122°20'0 0.0
2016-Aug-18 10:29N 47°38' W 122°20'0 0.0
2016-Aug-18 09:30N 47°38' W 122°20'0 0.0
2016-Aug-18 08:30N 47°38' W 122°20'0 0.0
2016-Aug-18 07:27N 47°38' W 122°20'0 0.0
2016-Aug-18 06:33N 47°38' W 122°20'0 0.0
2016-Aug-18 05:30N 47°38' W 122°20'0 0.0
2016-Aug-18 04:27N 47°38' W 122°20'0 0.0
2016-Aug-17 23:05N 47°38' W 122°20'0 0.0
2016-Aug-17 22:33N 47°38' W 122°20'0 0.0
2016-Aug-17 21:08N 47°38' W 122°20'0 0.0
2016-Aug-17 20:32N 47°38' W 122°20'0 0.0
2016-Aug-17 19:10N 47°38' W 122°20'  

Dump ship's entire track history